sensor_id;sensor_type;location;lat;lon;timestamp;temperature;humidity
28767;DHT22;15921;52.034;20.650;2022-08-21T00:00:19;21.60;99.90
28767;DHT22;15921;52.034;20.650;2022-08-21T00:02:52;21.60;99.90
28767;DHT22;15921;52.034;20.650;2022-08-21T00:05:20;21.50;99.90
28767;DHT22;15921;52.034;20.650;2022-08-21T00:07:47;21.50;99.90
28767;DHT22;15921;52.034;20.650;2022-08-21T00:10:13;21.40;99.90
28767;DHT22;15921;52.034;20.650;2022-08-21T00:12:41;21.40;99.90
28767;DHT22;15921;52.034;20.650;2022-08-21T00:15:08;21.40;99.90
28767;DHT22;15921;52.034;20.650;2022-08-21T00:17:35;21.30;99.90
28767;DHT22;15921;52.034;20.650;2022-08-21T00:20:04;21.30;99.90
28767;DHT22;15921;52.034;20.650;2022-08-21T00:22:30;21.20;99.90
28767;DHT22;15921;52.034;20.650;2022-08-21T00:24:56;21.10;99.90
28767;DHT22;15921;52.034;20.650;2022-08-21T00:27:28;21.10;99.90
28767;DHT22;15921;52.034;20.650;2022-08-21T00:29:53;21.10;99.90
28767;DHT22;15921;52.034;20.650;2022-08-21T00:32:26;21.10;99.90
28767;DHT22;15921;52.034;20.650;2022-08-21T00:34:52;21.10;99.90
28767;DHT22;15921;52.034;20.650;2022-08-21T00:37:18;21.00;99.90
28767;DHT22;15921;52.034;20.650;2022-08-21T00:39:44;21.00;99.90
28767;DHT22;15921;52.034;20.650;2022-08-21T00:42:10;21.00;99.90
28767;DHT22;15921;52.034;20.650;2022-08-21T00:44:42;20.90;99.90
28767;DHT22;15921;52.034;20.650;2022-08-21T00:47:08;21.00;99.90
28767;DHT22;15921;52.034;20.650;2022-08-21T00:49:35;20.90;99.90
28767;DHT22;15921;52.034;20.650;2022-08-21T00:52:01;20.90;99.90
28767;DHT22;15921;52.034;20.650;2022-08-21T00:54:30;20.80;99.90
28767;DHT22;15921;52.034;20.650;2022-08-21T00:57:00;20.80;99.90
28767;DHT22;15921;52.034;20.650;2022-08-21T00:59:28;20.80;99.90
28767;DHT22;15921;52.034;20.650;2022-08-21T01:01:55;20.80;99.90
28767;DHT22;15921;52.034;20.650;2022-08-21T01:04:22;20.70;99.90
28767;DHT22;15921;52.034;20.650;2022-08-21T01:06:49;20.70;99.90
28767;DHT22;15921;52.034;20.650;2022-08-21T01:09:17;20.60;99.90
28767;DHT22;15921;52.034;20.650;2022-08-21T01:11:44;20.60;99.90
28767;DHT22;15921;52.034;20.650;2022-08-21T01:14:12;20.60;99.90
28767;DHT22;15921;52.034;20.650;2022-08-21T01:16:44;20.60;99.90
28767;DHT22;15921;52.034;20.650;2022-08-21T01:19:10;20.60;99.90
28767;DHT22;15921;52.034;20.650;2022-08-21T01:21:37;20.60;99.90
28767;DHT22;15921;52.034;20.650;2022-08-21T01:24:03;20.60;99.90
28767;DHT22;15921;52.034;20.650;2022-08-21T01:26:33;20.60;99.90
28767;DHT22;15921;52.034;20.650;2022-08-21T01:31:29;20.60;99.90
28767;DHT22;15921;52.034;20.650;2022-08-21T01:33:58;20.60;99.90
28767;DHT22;15921;52.034;20.650;2022-08-21T01:36:25;20.70;99.90
28767;DHT22;15921;52.034;20.650;2022-08-21T01:38:52;20.60;99.90
28767;DHT22;15921;52.034;20.650;2022-08-21T01:41:18;20.60;99.90
28767;DHT22;15921;52.034;20.650;2022-08-21T01:43:44;20.60;99.90
28767;DHT22;15921;52.034;20.650;2022-08-21T01:46:12;20.60;99.90
28767;DHT22;15921;52.034;20.650;2022-08-21T01:48:39;20.50;99.90
28767;DHT22;15921;52.034;20.650;2022-08-21T01:51:11;20.50;99.90
28767;DHT22;15921;52.034;20.650;2022-08-21T01:53:38;20.40;99.90
28767;DHT22;15921;52.034;20.650;2022-08-21T01:56:08;20.30;99.90
28767;DHT22;15921;52.034;20.650;2022-08-21T01:58:35;20.30;99.90
28767;DHT22;15921;52.034;20.650;2022-08-21T02:01:03;20.20;99.90
28767;DHT22;15921;52.034;20.650;2022-08-21T02:03:30;20.10;99.90
28767;DHT22;15921;52.034;20.650;2022-08-21T02:06:03;20.10;99.90
28767;DHT22;15921;52.034;20.650;2022-08-21T02:08:34;20.10;99.90
28767;DHT22;15921;52.034;20.650;2022-08-21T02:11:01;20.00;99.90
28767;DHT22;15921;52.034;20.650;2022-08-21T02:13:27;19.90;99.90
28767;DHT22;15921;52.034;20.650;2022-08-21T02:16:00;19.90;99.90
28767;DHT22;15921;52.034;20.650;2022-08-21T02:18:26;19.90;99.90
28767;DHT22;15921;52.034;20.650;2022-08-21T02:20:53;19.80;99.90
28767;DHT22;15921;52.034;20.650;2022-08-21T02:23:19;19.80;99.90
28767;DHT22;15921;52.034;20.650;2022-08-21T02:25:47;19.80;99.90
28767;DHT22;15921;52.034;20.650;2022-08-21T02:28:16;19.70;99.90
28767;DHT22;15921;52.034;20.650;2022-08-21T02:30:47;19.70;99.90
28767;DHT22;15921;52.034;20.650;2022-08-21T02:33:13;19.70;99.90
28767;DHT22;15921;52.034;20.650;2022-08-21T02:35:44;19.70;99.90
28767;DHT22;15921;52.034;20.650;2022-08-21T02:38:15;19.70;99.90
28767;DHT22;15921;52.034;20.650;2022-08-21T02:40:44;19.80;99.90
28767;DHT22;15921;52.034;20.650;2022-08-21T02:43:13;19.80;99.90
28767;DHT22;15921;52.034;20.650;2022-08-21T02:45:41;19.70;99.90
28767;DHT22;15921;52.034;20.650;2022-08-21T02:48:10;19.70;99.90
28767;DHT22;15921;52.034;20.650;2022-08-21T02:50:39;19.70;99.90
28767;DHT22;15921;52.034;20.650;2022-08-21T02:53:09;19.70;99.90
28767;DHT22;15921;52.034;20.650;2022-08-21T02:55:37;19.70;99.90
28767;DHT22;15921;52.034;20.650;2022-08-21T02:58:04;19.80;99.90
28767;DHT22;15921;52.034;20.650;2022-08-21T03:00:31;19.70;99.90
28767;DHT22;15921;52.034;20.650;2022-08-21T03:02:58;19.80;99.90
28767;DHT22;15921;52.034;20.650;2022-08-21T03:05:25;19.80;99.90
28767;DHT22;15921;52.034;20.650;2022-08-21T03:07:54;19.80;99.90
28767;DHT22;15921;52.034;20.650;2022-08-21T03:10:23;19.80;99.90
28767;DHT22;15921;52.034;20.650;2022-08-21T03:12:48;19.70;99.90
28767;DHT22;15921;52.034;20.650;2022-08-21T03:15:19;19.70;99.90
28767;DHT22;15921;52.034;20.650;2022-08-21T03:17:46;19.60;99.90
28767;DHT22;15921;52.034;20.650;2022-08-21T03:20:15;19.60;99.90
28767;DHT22;15921;52.034;20.650;2022-08-21T03:22:42;19.50;99.90
28767;DHT22;15921;52.034;20.650;2022-08-21T03:25:11;19.50;99.90
28767;DHT22;15921;52.034;20.650;2022-08-21T03:27:37;19.50;99.90
28767;DHT22;15921;52.034;20.650;2022-08-21T03:30:05;19.50;99.90
28767;DHT22;15921;52.034;20.650;2022-08-21T03:32:32;19.50;99.90
28767;DHT22;15921;52.034;20.650;2022-08-21T03:34:58;19.50;99.90
28767;DHT22;15921;52.034;20.650;2022-08-21T03:37:28;19.40;99.90
28767;DHT22;15921;52.034;20.650;2022-08-21T03:43:02;19.50;99.90
28767;DHT22;15921;52.034;20.650;2022-08-21T03:45:27;19.40;99.90
28767;DHT22;15921;52.034;20.650;2022-08-21T03:48:01;19.40;99.90
28767;DHT22;15921;52.034;20.650;2022-08-21T03:50:30;19.50;99.90
28767;DHT22;15921;52.034;20.650;2022-08-21T03:52:57;19.50;99.90
28767;DHT22;15921;52.034;20.650;2022-08-21T03:55:24;19.50;99.90
28767;DHT22;15921;52.034;20.650;2022-08-21T03:57:51;19.60;99.90
28767;DHT22;15921;52.034;20.650;2022-08-21T04:00:18;19.60;99.90
28767;DHT22;15921;52.034;20.650;2022-08-21T04:02:45;19.60;99.90
28767;DHT22;15921;52.034;20.650;2022-08-21T04:05:13;19.70;99.90
28767;DHT22;15921;52.034;20.650;2022-08-21T04:07:39;19.80;99.90
28767;DHT22;15921;52.034;20.650;2022-08-21T04:10:06;19.90;99.90
28767;DHT22;15921;52.034;20.650;2022-08-21T04:12:32;20.00;99.90
28767;DHT22;15921;52.034;20.650;2022-08-21T04:14:58;20.10;99.90
28767;DHT22;15921;52.034;20.650;2022-08-21T04:17:24;20.10;99.90
28767;DHT22;15921;52.034;20.650;2022-08-21T04:19:50;20.30;99.90
28767;DHT22;15921;52.034;20.650;2022-08-21T04:22:16;20.40;99.90
28767;DHT22;15921;52.034;20.650;2022-08-21T04:24:42;20.50;99.90
28767;DHT22;15921;52.034;20.650;2022-08-21T04:27:08;20.70;99.90
28767;DHT22;15921;52.034;20.650;2022-08-21T04:29:34;20.70;99.90
28767;DHT22;15921;52.034;20.650;2022-08-21T04:31:59;20.80;99.90
28767;DHT22;15921;52.034;20.650;2022-08-21T04:34:25;20.90;99.90
28767;DHT22;15921;52.034;20.650;2022-08-21T04:36:51;21.00;99.90
28767;DHT22;15921;52.034;20.650;2022-08-21T04:39:17;21.10;99.90
28767;DHT22;15921;52.034;20.650;2022-08-21T04:41:42;21.10;99.90
28767;DHT22;15921;52.034;20.650;2022-08-21T04:44:08;21.20;99.90
28767;DHT22;15921;52.034;20.650;2022-08-21T04:46:34;21.30;99.90
28767;DHT22;15921;52.034;20.650;2022-08-21T04:49:00;21.30;99.90
28767;DHT22;15921;52.034;20.650;2022-08-21T04:51:32;21.40;99.90
28767;DHT22;15921;52.034;20.650;2022-08-21T04:54:14;21.50;99.90
28767;DHT22;15921;52.034;20.650;2022-08-21T04:56:45;21.60;99.90
28767;DHT22;15921;52.034;20.650;2022-08-21T04:59:26;21.60;99.90
28767;DHT22;15921;52.034;20.650;2022-08-21T05:01:53;21.60;99.90
28767;DHT22;15921;52.034;20.650;2022-08-21T05:04:25;21.60;99.90
28767;DHT22;15921;52.034;20.650;2022-08-21T05:06:55;21.60;99.90
28767;DHT22;15921;52.034;20.650;2022-08-21T05:09:21;21.60;99.90
28767;DHT22;15921;52.034;20.650;2022-08-21T05:11:49;21.60;99.90
28767;DHT22;15921;52.034;20.650;2022-08-21T05:14:17;21.60;99.90
28767;DHT22;15921;52.034;20.650;2022-08-21T05:16:42;21.70;99.90
28767;DHT22;15921;52.034;20.650;2022-08-21T05:19:10;21.80;99.90
28767;DHT22;15921;52.034;20.650;2022-08-21T05:21:38;22.00;99.90
28767;DHT22;15921;52.034;20.650;2022-08-21T05:24:04;22.10;99.90
28767;DHT22;15921;52.034;20.650;2022-08-21T05:26:29;22.20;99.90
28767;DHT22;15921;52.034;20.650;2022-08-21T05:28:55;22.30;99.90
28767;DHT22;15921;52.034;20.650;2022-08-21T05:31:22;22.50;99.90
28767;DHT22;15921;52.034;20.650;2022-08-21T05:33:48;22.60;99.90
28767;DHT22;15921;52.034;20.650;2022-08-21T05:36:13;22.70;99.90
28767;DHT22;15921;52.034;20.650;2022-08-21T05:38:39;22.70;99.90
28767;DHT22;15921;52.034;20.650;2022-08-21T05:41:06;22.80;99.90
28767;DHT22;15921;52.034;20.650;2022-08-21T05:43:32;22.80;99.90
28767;DHT22;15921;52.034;20.650;2022-08-21T05:46:02;22.80;99.90
28767;DHT22;15921;52.034;20.650;2022-08-21T05:48:28;22.90;99.90
28767;DHT22;15921;52.034;20.650;2022-08-21T05:50:54;23.00;99.90
28767;DHT22;15921;52.034;20.650;2022-08-21T05:53:22;23.10;99.90
28767;DHT22;15921;52.034;20.650;2022-08-21T05:55:48;23.30;99.90
28767;DHT22;15921;52.034;20.650;2022-08-21T05:58:16;23.40;99.90
28767;DHT22;15921;52.034;20.650;2022-08-21T06:00:43;23.40;99.90
28767;DHT22;15921;52.034;20.650;2022-08-21T06:03:24;23.40;99.90
28767;DHT22;15921;52.034;20.650;2022-08-21T06:05:50;23.50;99.90
28767;DHT22;15921;52.034;20.650;2022-08-21T06:08:17;23.50;99.90
28767;DHT22;15921;52.034;20.650;2022-08-21T06:10:43;23.60;99.90
28767;DHT22;15921;52.034;20.650;2022-08-21T06:13:10;23.70;99.90
28767;DHT22;15921;52.034;20.650;2022-08-21T06:15:35;23.80;99.90
28767;DHT22;15921;52.034;20.650;2022-08-21T06:18:01;23.80;99.90
28767;DHT22;15921;52.034;20.650;2022-08-21T06:20:27;23.80;99.90
28767;DHT22;15921;52.034;20.650;2022-08-21T06:22:54;23.80;99.90
28767;DHT22;15921;52.034;20.650;2022-08-21T06:25:19;23.70;99.90
28767;DHT22;15921;52.034;20.650;2022-08-21T06:27:45;23.80;99.90
28767;DHT22;15921;52.034;20.650;2022-08-21T06:30:12;23.80;99.90
28767;DHT22;15921;52.034;20.650;2022-08-21T06:32:38;23.90;99.90
28767;DHT22;15921;52.034;20.650;2022-08-21T06:35:04;23.90;99.90
28767;DHT22;15921;52.034;20.650;2022-08-21T06:37:30;23.90;99.90
28767;DHT22;15921;52.034;20.650;2022-08-21T06:39:56;23.90;99.90
28767;DHT22;15921;52.034;20.650;2022-08-21T06:42:22;23.90;99.90
28767;DHT22;15921;52.034;20.650;2022-08-21T06:44:48;23.90;99.90
28767;DHT22;15921;52.034;20.650;2022-08-21T06:47:14;24.00;99.90
28767;DHT22;15921;52.034;20.650;2022-08-21T06:49:39;24.00;99.90
28767;DHT22;15921;52.034;20.650;2022-08-21T06:52:10;24.10;99.90
28767;DHT22;15921;52.034;20.650;2022-08-21T06:54:36;24.10;99.90
28767;DHT22;15921;52.034;20.650;2022-08-21T06:57:02;24.30;99.90
28767;DHT22;15921;52.034;20.650;2022-08-21T06:59:28;24.30;99.90
28767;DHT22;15921;52.034;20.650;2022-08-21T07:01:53;24.50;99.90
28767;DHT22;15921;52.034;20.650;2022-08-21T07:04:19;24.60;99.90
28767;DHT22;15921;52.034;20.650;2022-08-21T07:06:46;24.70;99.90
28767;DHT22;15921;52.034;20.650;2022-08-21T07:09:11;24.90;99.90
28767;DHT22;15921;52.034;20.650;2022-08-21T07:11:37;25.10;99.90
28767;DHT22;15921;52.034;20.650;2022-08-21T07:14:03;25.30;99.90
28767;DHT22;15921;52.034;20.650;2022-08-21T07:16:29;25.50;99.90
28767;DHT22;15921;52.034;20.650;2022-08-21T07:18:55;25.70;99.90
28767;DHT22;15921;52.034;20.650;2022-08-21T07:21:21;25.90;99.90
28767;DHT22;15921;52.034;20.650;2022-08-21T07:23:51;26.00;99.90
28767;DHT22;15921;52.034;20.650;2022-08-21T07:26:20;26.10;99.90
28767;DHT22;15921;52.034;20.650;2022-08-21T07:28:47;26.30;99.90
28767;DHT22;15921;52.034;20.650;2022-08-21T07:31:15;26.50;99.90
28767;DHT22;15921;52.034;20.650;2022-08-21T07:33:41;26.60;99.90
28767;DHT22;15921;52.034;20.650;2022-08-21T07:36:08;26.70;99.90
28767;DHT22;15921;52.034;20.650;2022-08-21T07:38:34;26.80;99.90
28767;DHT22;15921;52.034;20.650;2022-08-21T07:41:01;26.90;99.90
28767;DHT22;15921;52.034;20.650;2022-08-21T07:43:28;27.00;99.90
28767;DHT22;15921;52.034;20.650;2022-08-21T07:45:54;27.00;99.90
28767;DHT22;15921;52.034;20.650;2022-08-21T07:48:23;27.10;99.90
28767;DHT22;15921;52.034;20.650;2022-08-21T07:50:49;27.20;99.90
28767;DHT22;15921;52.034;20.650;2022-08-21T07:53:15;27.20;99.90
28767;DHT22;15921;52.034;20.650;2022-08-21T07:55:41;27.20;99.90
28767;DHT22;15921;52.034;20.650;2022-08-21T07:58:07;27.30;99.90
28767;DHT22;15921;52.034;20.650;2022-08-21T08:00:33;27.30;99.90
28767;DHT22;15921;52.034;20.650;2022-08-21T08:02:59;27.30;99.90
28767;DHT22;15921;52.034;20.650;2022-08-21T08:05:29;27.40;99.90
28767;DHT22;15921;52.034;20.650;2022-08-21T08:07:56;27.50;99.90
28767;DHT22;15921;52.034;20.650;2022-08-21T08:10:22;27.60;99.90
28767;DHT22;15921;52.034;20.650;2022-08-21T08:12:49;27.70;99.90
28767;DHT22;15921;52.034;20.650;2022-08-21T08:15:21;27.70;99.90
28767;DHT22;15921;52.034;20.650;2022-08-21T08:17:47;27.70;99.90
28767;DHT22;15921;52.034;20.650;2022-08-21T08:20:14;27.80;99.90
28767;DHT22;15921;52.034;20.650;2022-08-21T08:22:40;28.00;99.90
28767;DHT22;15921;52.034;20.650;2022-08-21T08:25:07;28.00;99.90
28767;DHT22;15921;52.034;20.650;2022-08-21T08:27:33;28.20;99.30
28767;DHT22;15921;52.034;20.650;2022-08-21T08:29:59;28.20;98.40
28767;DHT22;15921;52.034;20.650;2022-08-21T08:32:25;28.20;98.10
28767;DHT22;15921;52.034;20.650;2022-08-21T08:34:51;28.20;97.50
28767;DHT22;15921;52.034;20.650;2022-08-21T08:37:18;28.20;97.30
28767;DHT22;15921;52.034;20.650;2022-08-21T08:39:45;28.10;96.90
28767;DHT22;15921;52.034;20.650;2022-08-21T08:42:25;28.00;97.00
28767;DHT22;15921;52.034;20.650;2022-08-21T08:45:05;28.10;97.10
28767;DHT22;15921;52.034;20.650;2022-08-21T08:47:36;28.10;96.30
28767;DHT22;15921;52.034;20.650;2022-08-21T08:50:14;28.10;96.30
28767;DHT22;15921;52.034;20.650;2022-08-21T08:52:47;28.20;95.30
28767;DHT22;15921;52.034;20.650;2022-08-21T08:55:25;28.30;95.10
28767;DHT22;15921;52.034;20.650;2022-08-21T08:57:53;28.30;93.80
28767;DHT22;15921;52.034;20.650;2022-08-21T09:00:22;28.50;94.00
28767;DHT22;15921;52.034;20.650;2022-08-21T09:02:51;28.70;93.70
28767;DHT22;15921;52.034;20.650;2022-08-21T09:05:27;28.70;93.20
28767;DHT22;15921;52.034;20.650;2022-08-21T09:10:48;28.90;93.00
28767;DHT22;15921;52.034;20.650;2022-08-21T09:24:32;30.30;87.30
28767;DHT22;15921;52.034;20.650;2022-08-21T09:27:08;30.40;83.70
28767;DHT22;15921;52.034;20.650;2022-08-21T09:29:39;30.40;84.40
28767;DHT22;15921;52.034;20.650;2022-08-21T09:32:15;30.50;84.60
28767;DHT22;15921;52.034;20.650;2022-08-21T09:34:53;30.40;83.80
28767;DHT22;15921;52.034;20.650;2022-08-21T09:37:19;30.30;84.90
28767;DHT22;15921;52.034;20.650;2022-08-21T09:39:45;30.30;85.50
28767;DHT22;15921;52.034;20.650;2022-08-21T09:42:11;30.30;85.40
28767;DHT22;15921;52.034;20.650;2022-08-21T09:44:40;30.40;84.10
28767;DHT22;15921;52.034;20.650;2022-08-21T09:47:10;30.40;83.20
28767;DHT22;15921;52.034;20.650;2022-08-21T09:49:40;30.40;83.30
28767;DHT22;15921;52.034;20.650;2022-08-21T09:52:22;30.40;82.10
28767;DHT22;15921;52.034;20.650;2022-08-21T09:54:54;30.50;81.80
28767;DHT22;15921;52.034;20.650;2022-08-21T09:57:26;30.70;81.50
28767;DHT22;15921;52.034;20.650;2022-08-21T10:00:32;30.70;80.90
28767;DHT22;15921;52.034;20.650;2022-08-21T10:03:14;30.90;79.00
28767;DHT22;15921;52.034;20.650;2022-08-21T10:06:02;31.10;78.50
28767;DHT22;15921;52.034;20.650;2022-08-21T10:08:32;31.30;77.70
28767;DHT22;15921;52.034;20.650;2022-08-21T10:11:07;31.40;77.90
28767;DHT22;15921;52.034;20.650;2022-08-21T10:25:19;31.40;74.70
28767;DHT22;15921;52.034;20.650;2022-08-21T10:30:21;31.20;75.50
28767;DHT22;15921;52.034;20.650;2022-08-21T10:33:13;31.10;74.50
28767;DHT22;15921;52.034;20.650;2022-08-21T10:38:54;31.30;73.10
28767;DHT22;15921;52.034;20.650;2022-08-21T10:46:53;31.70;72.00
28767;DHT22;15921;52.034;20.650;2022-08-21T10:55:19;31.50;72.00
28767;DHT22;15921;52.034;20.650;2022-08-21T10:58:04;31.20;72.40
28767;DHT22;15921;52.034;20.650;2022-08-21T11:00:43;31.20;72.70
28767;DHT22;15921;52.034;20.650;2022-08-21T11:05:50;31.20;72.00
28767;DHT22;15921;52.034;20.650;2022-08-21T11:11:10;30.80;73.00
28767;DHT22;15921;52.034;20.650;2022-08-21T11:21:36;31.20;71.30
28767;DHT22;15921;52.034;20.650;2022-08-21T11:24:38;31.30;69.80
28767;DHT22;15921;52.034;20.650;2022-08-21T11:29:47;31.10;69.40
28767;DHT22;15921;52.034;20.650;2022-08-21T11:40:43;31.70;69.10
28767;DHT22;15921;52.034;20.650;2022-08-21T11:45:53;32.70;66.80
28767;DHT22;15921;52.034;20.650;2022-08-21T11:49:12;33.10;66.90
28767;DHT22;15921;52.034;20.650;2022-08-21T11:51:51;33.60;67.40
28767;DHT22;15921;52.034;20.650;2022-08-21T11:54:29;33.20;66.20
28767;DHT22;15921;52.034;20.650;2022-08-21T11:57:13;32.70;67.60
28767;DHT22;15921;52.034;20.650;2022-08-21T12:00:10;32.40;68.00
28767;DHT22;15921;52.034;20.650;2022-08-21T12:02:45;32.10;68.00
28767;DHT22;15921;52.034;20.650;2022-08-21T12:05:25;31.90;68.90
28767;DHT22;15921;52.034;20.650;2022-08-21T12:08:02;31.50;70.00
28767;DHT22;15921;52.034;20.650;2022-08-21T12:10:42;31.30;70.30
28767;DHT22;15921;52.034;20.650;2022-08-21T12:13:23;31.10;70.90
28767;DHT22;15921;52.034;20.650;2022-08-21T12:15:49;30.90;71.40
28767;DHT22;15921;52.034;20.650;2022-08-21T12:18:30;30.80;71.80
28767;DHT22;15921;52.034;20.650;2022-08-21T12:21:17;30.70;72.30
28767;DHT22;15921;52.034;20.650;2022-08-21T12:26:28;30.50;72.60
28767;DHT22;15921;52.034;20.650;2022-08-21T12:29:12;30.60;72.70
28767;DHT22;15921;52.034;20.650;2022-08-21T12:40:28;32.60;68.10
28767;DHT22;15921;52.034;20.650;2022-08-21T12:42:58;33.60;66.10
28767;DHT22;15921;52.034;20.650;2022-08-21T12:45:45;34.20;64.70
28767;DHT22;15921;52.034;20.650;2022-08-21T12:50:55;33.20;65.20
28767;DHT22;15921;52.034;20.650;2022-08-21T12:55:57;35.70;62.50
28767;DHT22;15921;52.034;20.650;2022-08-21T12:58:30;37.30;59.60
28767;DHT22;15921;52.034;20.650;2022-08-21T13:01:03;39.00;56.50
28767;DHT22;15921;52.034;20.650;2022-08-21T13:03:31;40.60;54.30
28767;DHT22;15921;52.034;20.650;2022-08-21T13:05:58;41.60;51.50
28767;DHT22;15921;52.034;20.650;2022-08-21T13:08:26;42.20;49.20
28767;DHT22;15921;52.034;20.650;2022-08-21T13:11:00;42.80;47.60
28767;DHT22;15921;52.034;20.650;2022-08-21T13:13:27;43.50;46.00
28767;DHT22;15921;52.034;20.650;2022-08-21T13:16:03;44.50;44.90
28767;DHT22;15921;52.034;20.650;2022-08-21T13:18:32;45.80;43.20
28767;DHT22;15921;52.034;20.650;2022-08-21T13:21:12;46.30;41.60
28767;DHT22;15921;52.034;20.650;2022-08-21T13:23:40;46.00;41.10
28767;DHT22;15921;52.034;20.650;2022-08-21T13:26:32;46.70;40.80
28767;DHT22;15921;52.034;20.650;2022-08-21T13:29:07;45.30;40.10
28767;DHT22;15921;52.034;20.650;2022-08-21T13:31:33;45.20;41.30
28767;DHT22;15921;52.034;20.650;2022-08-21T13:33:59;45.50;41.50
28767;DHT22;15921;52.034;20.650;2022-08-21T13:36:36;46.20;40.20
28767;DHT22;15921;52.034;20.650;2022-08-21T13:39:04;46.70;39.60
28767;DHT22;15921;52.034;20.650;2022-08-21T13:41:35;47.30;39.50
28767;DHT22;15921;52.034;20.650;2022-08-21T13:44:17;47.00;38.70
28767;DHT22;15921;52.034;20.650;2022-08-21T13:46:44;47.10;38.30
28767;DHT22;15921;52.034;20.650;2022-08-21T13:49:14;47.40;38.10
28767;DHT22;15921;52.034;20.650;2022-08-21T13:51:41;47.70;38.20
28767;DHT22;15921;52.034;20.650;2022-08-21T13:56:49;47.20;37.60
28767;DHT22;15921;52.034;20.650;2022-08-21T13:59:31;46.40;37.90
28767;DHT22;15921;52.034;20.650;2022-08-21T14:02:22;45.30;38.70
28767;DHT22;15921;52.034;20.650;2022-08-21T14:05:01;44.60;39.40
28767;DHT22;15921;52.034;20.650;2022-08-21T14:07:31;44.40;40.70
28767;DHT22;15921;52.034;20.650;2022-08-21T14:12:47;44.70;39.70
28767;DHT22;15921;52.034;20.650;2022-08-21T14:15:15;45.00;39.60
28767;DHT22;15921;52.034;20.650;2022-08-21T14:17:42;44.70;39.70
28767;DHT22;15921;52.034;20.650;2022-08-21T14:20:34;44.20;40.60
28767;DHT22;15921;52.034;20.650;2022-08-21T14:23:00;43.50;40.80
28767;DHT22;15921;52.034;20.650;2022-08-21T14:25:30;42.80;41.40
28767;DHT22;15921;52.034;20.650;2022-08-21T14:30:33;42.60;42.10
28767;DHT22;15921;52.034;20.650;2022-08-21T14:33:01;42.90;41.70
28767;DHT22;15921;52.034;20.650;2022-08-21T14:35:27;42.90;41.80
28767;DHT22;15921;52.034;20.650;2022-08-21T14:37:54;42.00;42.50
28767;DHT22;15921;52.034;20.650;2022-08-21T14:40:21;42.00;42.70
28767;DHT22;15921;52.034;20.650;2022-08-21T14:42:48;42.50;42.00
28767;DHT22;15921;52.034;20.650;2022-08-21T14:45:29;43.10;41.70
28767;DHT22;15921;52.034;20.650;2022-08-21T14:47:56;43.60;40.90
28767;DHT22;15921;52.034;20.650;2022-08-21T14:50:23;44.30;41.00
28767;DHT22;15921;52.034;20.650;2022-08-21T14:52:49;44.70;40.10
28767;DHT22;15921;52.034;20.650;2022-08-21T14:55:16;44.80;39.80
28767;DHT22;15921;52.034;20.650;2022-08-21T14:57:45;43.60;40.90
28767;DHT22;15921;52.034;20.650;2022-08-21T15:00:14;41.70;42.40
28767;DHT22;15921;52.034;20.650;2022-08-21T15:02:40;40.20;44.40
28767;DHT22;15921;52.034;20.650;2022-08-21T15:05:06;38.90;45.90
28767;DHT22;15921;52.034;20.650;2022-08-21T15:07:32;37.90;47.20
28767;DHT22;15921;52.034;20.650;2022-08-21T15:09:57;37.10;48.70
28767;DHT22;15921;52.034;20.650;2022-08-21T15:12:24;37.40;49.30
28767;DHT22;15921;52.034;20.650;2022-08-21T15:14:50;37.50;49.10
28767;DHT22;15921;52.034;20.650;2022-08-21T15:17:17;37.00;49.70
28767;DHT22;15921;52.034;20.650;2022-08-21T15:19:42;36.40;50.60
28767;DHT22;15921;52.034;20.650;2022-08-21T15:22:08;37.40;49.60
28767;DHT22;15921;52.034;20.650;2022-08-21T15:24:34;38.00;48.60
28767;DHT22;15921;52.034;20.650;2022-08-21T15:27:01;38.60;48.10
28767;DHT22;15921;52.034;20.650;2022-08-21T15:29:29;38.60;47.90
28767;DHT22;15921;52.034;20.650;2022-08-21T15:32:03;37.50;49.00
28767;DHT22;15921;52.034;20.650;2022-08-21T15:34:30;36.40;50.50
28767;DHT22;15921;52.034;20.650;2022-08-21T15:36:57;36.00;51.40
28767;DHT22;15921;52.034;20.650;2022-08-21T15:39:24;36.30;51.50
28767;DHT22;15921;52.034;20.650;2022-08-21T15:41:50;36.70;51.10
28767;DHT22;15921;52.034;20.650;2022-08-21T15:44:16;36.80;51.10
28767;DHT22;15921;52.034;20.650;2022-08-21T15:46:42;37.20;50.90
28767;DHT22;15921;52.034;20.650;2022-08-21T15:49:10;37.80;50.10
28767;DHT22;15921;52.034;20.650;2022-08-21T15:51:35;38.20;49.30
28767;DHT22;15921;52.034;20.650;2022-08-21T15:54:01;38.70;48.70
28767;DHT22;15921;52.034;20.650;2022-08-21T15:56:33;38.90;47.90
28767;DHT22;15921;52.034;20.650;2022-08-21T15:59:04;39.10;47.60
28767;DHT22;15921;52.034;20.650;2022-08-21T16:01:31;39.10;47.90
28767;DHT22;15921;52.034;20.650;2022-08-21T16:03:56;38.90;48.70
28767;DHT22;15921;52.034;20.650;2022-08-21T16:06:23;37.90;49.40
28767;DHT22;15921;52.034;20.650;2022-08-21T16:08:48;37.00;50.60
28767;DHT22;15921;52.034;20.650;2022-08-21T16:11:15;36.20;51.90
28767;DHT22;15921;52.034;20.650;2022-08-21T16:13:44;35.60;53.00
28767;DHT22;15921;52.034;20.650;2022-08-21T16:16:12;35.20;53.90
28767;DHT22;15921;52.034;20.650;2022-08-21T16:18:39;34.80;54.90
28767;DHT22;15921;52.034;20.650;2022-08-21T16:21:06;34.50;55.10
28767;DHT22;15921;52.034;20.650;2022-08-21T16:23:33;34.10;55.50
28767;DHT22;15921;52.034;20.650;2022-08-21T16:26:03;33.60;56.30
28767;DHT22;15921;52.034;20.650;2022-08-21T16:28:30;33.20;56.90
28767;DHT22;15921;52.034;20.650;2022-08-21T16:30:57;32.90;57.60
28767;DHT22;15921;52.034;20.650;2022-08-21T16:33:33;32.70;58.40
28767;DHT22;15921;52.034;20.650;2022-08-21T16:35:59;32.60;59.00
28767;DHT22;15921;52.034;20.650;2022-08-21T16:38:26;32.50;58.90
28767;DHT22;15921;52.034;20.650;2022-08-21T16:40:53;32.30;59.50
28767;DHT22;15921;52.034;20.650;2022-08-21T16:43:22;32.00;60.20
28767;DHT22;15921;52.034;20.650;2022-08-21T16:45:49;31.80;61.00
28767;DHT22;15921;52.034;20.650;2022-08-21T16:48:15;31.50;61.40
28767;DHT22;15921;52.034;20.650;2022-08-21T16:50:40;31.40;62.30
28767;DHT22;15921;52.034;20.650;2022-08-21T16:53:06;31.20;62.90
28767;DHT22;15921;52.034;20.650;2022-08-21T16:55:36;31.00;63.40
28767;DHT22;15921;52.034;20.650;2022-08-21T16:58:28;30.70;64.40
28767;DHT22;15921;52.034;20.650;2022-08-21T17:00:56;30.50;65.50
28767;DHT22;15921;52.034;20.650;2022-08-21T17:03:29;30.20;66.80
28767;DHT22;15921;52.034;20.650;2022-08-21T17:05:56;29.90;67.90
28767;DHT22;15921;52.034;20.650;2022-08-21T17:08:22;29.70;68.50